createdAt,value
2022-11-28T00:01:35.892Z,3.20
2022-11-28T00:04:04.902Z,3.22
2022-11-28T00:06:32.370Z,3.21
2022-11-28T00:09:00.780Z,3.25
2022-11-28T00:11:28.049Z,3.24
2022-11-28T00:13:55.619Z,3.21
2022-11-28T00:16:24.271Z,3.19
2022-11-28T00:18:53.853Z,3.19
2022-11-28T00:21:21.917Z,3.14
2022-11-28T00:23:49.752Z,3.14
2022-11-28T00:26:25.072Z,3.09
2022-11-28T00:28:52.770Z,3.09
2022-11-28T00:31:24.344Z,3.18
2022-11-28T00:33:51.749Z,3.13
2022-11-28T00:36:20.209Z,3.19
2022-11-28T00:38:47.424Z,3.20
2022-11-28T00:41:18.370Z,3.15
2022-11-28T00:43:46.965Z,3.08
2022-11-28T00:46:16.558Z,3.04
2022-11-28T00:48:44.363Z,3.00
2022-11-28T00:51:19.791Z,2.98
2022-11-28T00:53:49.413Z,2.97
2022-11-28T00:56:21.318Z,2.98
2022-11-28T00:58:51.320Z,2.94
2022-11-28T01:01:27.331Z,2.90
2022-11-28T01:03:58.684Z,2.88
2022-11-28T01:06:31.741Z,2.85
2022-11-28T01:09:02.404Z,2.82
2022-11-28T01:11:30.381Z,2.82
2022-11-28T01:14:00.127Z,2.82
2022-11-28T01:16:28.610Z,2.81
2022-11-28T01:18:55.535Z,2.82
2022-11-28T01:21:23.934Z,2.90
2022-11-28T01:23:51.147Z,2.95
2022-11-28T01:26:26.750Z,2.97
2022-11-28T01:28:54.900Z,3.05
2022-11-28T01:31:28.761Z,3.07
2022-11-28T01:33:57.106Z,3.11
2022-11-28T01:36:25.232Z,3.16
2022-11-28T01:38:53.512Z,3.24
2022-11-28T01:41:25.761Z,3.25
2022-11-28T01:44:29.917Z,3.26
2022-11-28T01:46:57.037Z,3.23
2022-11-28T01:49:36.055Z,3.24
2022-11-28T01:52:14.713Z,3.23
2022-11-28T01:54:46.199Z,3.21
2022-11-28T01:57:21.791Z,3.23
2022-11-28T02:00:05.466Z,3.26
2022-11-28T02:02:46.358Z,3.27
2022-11-28T02:05:14.617Z,3.20
2022-11-28T02:07:44.093Z,3.22
2022-11-28T02:10:18.034Z,3.27
2022-11-28T02:13:11.274Z,3.24
2022-11-28T02:15:55.774Z,3.25
2022-11-28T02:18:58.550Z,3.24
2022-11-28T02:21:54.181Z,3.29
2022-11-28T02:24:43.270Z,3.29
2022-11-28T02:27:28.575Z,3.29
2022-11-28T02:30:10.726Z,3.27
2022-11-28T02:32:55.449Z,3.29
2022-11-28T02:35:39.261Z,3.30
2022-11-28T02:38:48.876Z,3.31
2022-11-28T02:41:34.823Z,3.27
2022-11-28T02:44:14.485Z,3.29
2022-11-28T02:46:56.672Z,3.29
2022-11-28T02:49:34.080Z,3.25
2022-11-28T02:52:09.801Z,3.19
2022-11-28T02:54:39.494Z,3.15
2022-11-28T02:57:08.243Z,3.15
2022-11-28T02:59:38.186Z,3.11
2022-11-28T03:02:33.992Z,3.07
2022-11-28T03:05:42.466Z,3.05
2022-11-28T03:08:36.543Z,3.02
2022-11-28T03:11:44.450Z,3.04
2022-11-28T03:14:59.725Z,3.04
2022-11-28T03:18:11.492Z,2.97
2022-11-28T03:21:31.939Z,2.98
2022-11-28T03:24:07.110Z,2.96
2022-11-28T03:26:54.571Z,2.98
2022-11-28T03:29:33.597Z,3.05
2022-11-28T03:32:06.965Z,3.08
2022-11-28T03:34:41.348Z,3.12
2022-11-28T03:37:20.699Z,3.13
2022-11-28T03:39:57.618Z,3.13
2022-11-28T03:42:29.836Z,3.14
2022-11-28T03:45:24.344Z,3.19
2022-11-28T03:48:00.983Z,3.20
2022-11-28T03:50:40.626Z,3.20
2022-11-28T03:53:20.575Z,3.22
2022-11-28T03:56:20.040Z,3.22
2022-11-28T03:59:00.466Z,3.22
2022-11-28T04:01:41.286Z,3.28
2022-11-28T04:04:25.155Z,3.30
2022-11-28T04:07:28.392Z,3.29
2022-11-28T04:10:34.727Z,3.31
2022-11-28T04:13:11.085Z,3.31
2022-11-28T04:15:59.548Z,3.23
2022-11-28T04:19:01.467Z,3.24
2022-11-28T04:21:43.679Z,3.27
2022-11-28T04:24:23.360Z,3.31
2022-11-28T04:27:05.492Z,3.32
2022-11-28T04:29:39.448Z,3.40
2022-11-28T04:32:11.649Z,3.44
2022-11-28T04:34:45.320Z,3.46
2022-11-28T04:37:15.995Z,3.43
2022-11-28T04:39:48.552Z,3.43
2022-11-28T04:42:23.798Z,3.35
2022-11-28T04:45:12.762Z,3.36
2022-11-28T04:47:40.049Z,3.36
2022-11-28T04:50:08.189Z,3.43
2022-11-28T04:53:09.522Z,3.43
2022-11-28T04:55:49.078Z,3.44
2022-11-28T04:58:26.146Z,3.39
2022-11-28T05:00:56.043Z,3.44
2022-11-28T05:03:28.656Z,3.51
2022-11-28T05:05:55.657Z,3.54
2022-11-28T05:08:22.953Z,3.54
2022-11-28T05:10:49.963Z,3.54
2022-11-28T05:13:17.146Z,3.51
2022-11-28T05:15:44.022Z,3.53
2022-11-28T05:18:11.154Z,3.54
2022-11-28T05:20:39.254Z,3.56
2022-11-28T05:23:07.015Z,3.57
2022-11-28T05:25:33.880Z,3.61
2022-11-28T05:28:01.181Z,3.65
2022-11-28T05:30:28.129Z,3.72
2022-11-28T05:32:55.750Z,3.75
2022-11-28T05:35:23.465Z,3.80
2022-11-28T05:37:50.510Z,3.82
2022-11-28T05:40:17.445Z,3.88
2022-11-28T05:42:45.220Z,3.90
2022-11-28T05:45:12.040Z,3.96
2022-11-28T05:47:39.202Z,4.00
2022-11-28T05:50:08.093Z,4.05
2022-11-28T05:52:35.761Z,4.08
2022-11-28T05:55:02.673Z,4.12
2022-11-28T05:57:32.132Z,4.13
2022-11-28T05:59:59.047Z,4.17
2022-11-28T06:02:26.242Z,4.19
2022-11-28T06:04:53.255Z,4.19
2022-11-28T06:07:20.492Z,4.21
2022-11-28T06:09:47.626Z,4.24
2022-11-28T06:12:14.704Z,4.24
2022-11-28T06:14:41.535Z,4.28
2022-11-28T06:17:08.610Z,4.32
2022-11-28T06:19:35.461Z,4.35
2022-11-28T06:22:02.711Z,4.37
2022-11-28T06:24:29.619Z,4.39
2022-11-28T06:26:56.906Z,4.40
2022-11-28T06:29:23.730Z,4.41
2022-11-28T06:31:50.954Z,4.39
2022-11-28T06:34:17.936Z,4.40
2022-11-28T06:36:45.318Z,4.38
2022-11-28T06:39:15.544Z,4.40
2022-11-28T06:41:43.586Z,4.41
2022-11-28T06:44:17.736Z,4.45
2022-11-28T06:46:45.307Z,4.43
2022-11-28T06:49:13.554Z,4.41
2022-11-28T06:51:42.629Z,4.42
2022-11-28T06:54:10.066Z,4.45
2022-11-28T06:56:39.854Z,4.51
2022-11-28T06:59:07.214Z,4.53
2022-11-28T07:01:34.601Z,4.52
2022-11-28T07:04:02.180Z,4.59
2022-11-28T07:06:29.518Z,4.64
2022-11-28T07:08:58.740Z,4.66
2022-11-28T07:11:30.891Z,4.68
2022-11-28T07:14:01.706Z,4.71
2022-11-28T07:16:32.547Z,4.74
2022-11-28T07:19:00.056Z,4.73
2022-11-28T07:21:29.452Z,4.75
2022-11-28T07:23:59.318Z,4.77
2022-11-28T07:26:26.973Z,4.76
2022-11-28T07:28:56.041Z,4.76
2022-11-28T07:31:32.029Z,4.78
2022-11-28T07:34:03.299Z,4.82
2022-11-28T07:36:31.566Z,4.82
2022-11-28T07:39:01.232Z,4.85
2022-11-28T07:41:29.389Z,4.87
2022-11-28T07:44:02.457Z,4.87
2022-11-28T07:46:32.154Z,4.87
2022-11-28T07:48:59.848Z,4.88
2022-11-28T07:51:33.478Z,4.91
2022-11-28T07:54:02.907Z,4.89
2022-11-28T07:57:04.571Z,4.87
2022-11-28T07:59:22.516Z,4.91
2022-11-28T08:01:50.196Z,4.92
2022-11-28T08:04:17.279Z,4.93
2022-11-28T08:06:44.807Z,4.94
2022-11-28T08:09:12.225Z,4.97
2022-11-28T08:11:40.520Z,4.96
2022-11-28T08:14:07.395Z,4.97
2022-11-28T08:16:34.984Z,5.00
2022-11-28T08:19:02.777Z,5.03
2022-11-28T08:21:33.723Z,5.02
2022-11-28T08:24:02.694Z,5.02
2022-11-28T08:26:32.492Z,5.06
2022-11-28T08:29:02.093Z,5.11
2022-11-28T08:31:37.432Z,5.10
2022-11-28T08:34:09.662Z,5.09
2022-11-28T08:36:37.834Z,5.09
2022-11-28T08:41:59.940Z,5.12
2022-11-28T08:44:30.280Z,5.15
2022-11-28T08:46:57.979Z,5.18
2022-11-28T08:49:24.851Z,5.22
2022-11-28T08:51:52.060Z,5.23
2022-11-28T08:54:18.866Z,5.16
2022-11-28T08:56:48.593Z,5.17
2022-11-28T08:59:16.024Z,5.20
2022-11-28T09:01:43.315Z,5.26
2022-11-28T09:04:10.419Z,5.30
2022-11-28T09:06:41.119Z,5.32
2022-11-28T09:09:09.129Z,5.36
2022-11-28T09:11:36.946Z,5.37
2022-11-28T09:14:03.852Z,5.39
2022-11-28T09:16:31.391Z,5.42
2022-11-28T09:18:59.655Z,5.40
2022-11-28T09:21:27.166Z,5.45
2022-11-28T09:23:56.648Z,5.46
2022-11-28T09:26:25.488Z,5.49
2022-11-28T09:28:53.903Z,5.55
2022-11-28T09:31:22.776Z,5.60
2022-11-28T09:33:50.401Z,5.62
2022-11-28T09:36:21.629Z,5.56
2022-11-28T09:38:48.793Z,5.57
2022-11-28T09:41:44.284Z,5.57
2022-11-28T09:44:38.827Z,5.57
2022-11-28T09:47:18.821Z,5.63
2022-11-28T09:50:15.412Z,5.67
2022-11-28T09:53:23.208Z,5.70
2022-11-28T09:55:55.954Z,5.66
2022-11-28T09:58:53.919Z,5.74
2022-11-28T10:01:42.287Z,5.79
2022-11-28T10:04:21.522Z,5.82
2022-11-28T10:07:19.651Z,5.83
2022-11-28T10:10:02.833Z,5.86
2022-11-28T10:13:03.928Z,5.82
2022-11-28T10:16:07.702Z,5.82
2022-11-28T10:18:47.857Z,5.87
2022-11-28T10:21:31.358Z,5.90
2022-11-28T10:24:05.094Z,5.87
2022-11-28T10:26:38.347Z,5.92
2022-11-28T10:29:29.735Z,6.02
2022-11-28T10:32:04.805Z,6.10
2022-11-28T10:34:53.293Z,6.12
2022-11-28T10:37:31.160Z,6.10
2022-11-28T10:40:54.471Z,6.14
2022-11-28T10:43:33.499Z,6.12
2022-11-28T10:46:57.510Z,6.13
2022-11-28T10:50:04.682Z,6.16
2022-11-28T10:52:47.804Z,6.18
2022-11-28T10:56:08.433Z,6.15
2022-11-28T10:59:04.463Z,6.19
2022-11-28T11:01:43.737Z,6.23
2022-11-28T11:04:26.682Z,6.19
2022-11-28T11:07:21.729Z,6.21
2022-11-28T11:09:52.200Z,6.23
2022-11-28T11:12:32.336Z,6.24
2022-11-28T11:14:59.236Z,6.27
2022-11-28T11:17:37.966Z,6.28
2022-11-28T11:20:32.236Z,6.27
2022-11-28T11:23:22.008Z,6.26
2022-11-28T11:25:55.322Z,6.30
2022-11-28T11:28:28.197Z,6.30
2022-11-28T11:31:05.878Z,6.35
2022-11-28T11:33:38.269Z,6.39
2022-11-28T11:36:29.243Z,6.40
2022-11-28T11:39:15.874Z,6.39
2022-11-28T11:42:09.506Z,6.40
2022-11-28T11:44:38.641Z,6.39
2022-11-28T11:47:08.016Z,6.40
2022-11-28T11:49:44.068Z,6.43
2022-11-28T11:52:28.064Z,6.43
2022-11-28T11:54:58.312Z,6.44
2022-11-28T11:57:38.034Z,6.45
2022-11-28T12:00:14.927Z,6.49
2022-11-28T12:02:57.083Z,6.51
2022-11-28T12:06:12.802Z,6.48
2022-11-28T12:08:45.027Z,6.46
2022-11-28T12:11:34.165Z,6.47
2022-11-28T12:14:27.489Z,6.53
2022-11-28T12:17:57.141Z,6.60
2022-11-28T12:20:58.517Z,6.60
2022-11-28T12:23:52.959Z,6.62
2022-11-28T12:26:41.835Z,6.62
2022-11-28T12:29:27.725Z,6.58
2022-11-28T12:32:26.039Z,6.62
2022-11-28T12:35:30.035Z,6.65
2022-11-28T12:38:44.642Z,6.63
2022-11-28T12:41:30.702Z,6.61
2022-11-28T12:44:28.220Z,6.61
2022-11-28T12:47:06.371Z,6.63
2022-11-28T12:50:18.085Z,6.62
2022-11-28T12:53:13.030Z,6.66
2022-11-28T12:56:07.015Z,6.69
2022-11-28T12:58:55.209Z,6.72
2022-11-28T13:02:06.685Z,6.71
2022-11-28T13:04:56.685Z,6.67
2022-11-28T13:07:48.817Z,6.63
2022-11-28T13:10:39.360Z,6.59
2022-11-28T13:13:39.860Z,6.63
2022-11-28T13:16:33.648Z,6.49
2022-11-28T13:19:07.032Z,6.53
2022-11-28T13:21:59.898Z,6.55
2022-11-28T13:24:42.456Z,6.58
2022-11-28T13:27:33.314Z,6.57
2022-11-28T13:30:24.445Z,6.59
2022-11-28T13:33:07.543Z,6.63
2022-11-28T13:35:35.401Z,6.61
2022-11-28T13:38:50.495Z,6.64
2022-11-28T13:42:21.445Z,6.68
2022-11-28T13:44:50.340Z,6.70
2022-11-28T13:47:23.050Z,6.70
2022-11-28T13:49:50.872Z,6.73
2022-11-28T13:52:17.714Z,6.69
2022-11-28T13:54:50.837Z,6.71
2022-11-28T13:57:30.402Z,6.73
2022-11-28T14:00:19.591Z,6.70
2022-11-28T14:03:00.108Z,6.71
2022-11-28T14:05:41.672Z,6.72
2022-11-28T14:08:28.058Z,6.75
2022-11-28T14:11:33.452Z,6.72
2022-11-28T14:14:45.696Z,6.73
2022-11-28T14:17:28.262Z,6.69
2022-11-28T14:20:05.917Z,6.74
2022-11-28T14:23:09.035Z,6.75
2022-11-28T14:25:49.678Z,6.73
2022-11-28T14:28:27.318Z,6.75
2022-11-28T14:31:32.107Z,6.72
2022-11-28T14:34:22.130Z,6.73
2022-11-28T14:37:21.286Z,6.76
2022-11-28T14:39:53.168Z,6.74
2022-11-28T14:45:44.954Z,6.74
2022-11-28T14:48:23.856Z,6.72
2022-11-28T14:51:00.641Z,6.70
2022-11-28T14:53:34.810Z,6.77
2022-11-28T14:56:25.846Z,6.80
2022-11-28T14:59:00.218Z,6.82
2022-11-28T15:02:13.783Z,6.86
2022-11-28T15:04:54.854Z,6.87
2022-11-28T15:08:16.030Z,6.87
2022-11-28T15:11:08.453Z,6.86
2022-11-28T15:14:05.986Z,6.89
2022-11-28T15:16:35.339Z,6.85
2022-11-28T15:19:45.192Z,6.85
2022-11-28T15:22:41.763Z,6.76
2022-11-28T15:25:21.290Z,6.79
2022-11-28T15:27:49.100Z,6.80
2022-11-28T15:30:26.758Z,6.70
2022-11-28T15:33:00.942Z,6.72
2022-11-28T15:35:29.150Z,6.75
2022-11-28T15:37:58.494Z,6.79
2022-11-28T15:40:37.467Z,6.79
2022-11-28T15:43:12.486Z,6.76
2022-11-28T15:45:42.405Z,6.79
2022-11-28T15:48:39.864Z,6.76
2022-11-28T15:51:09.518Z,6.79
2022-11-28T15:53:42.438Z,6.84
2022-11-28T15:56:15.623Z,6.83
2022-11-28T15:58:48.961Z,6.86
2022-11-28T16:01:26.099Z,6.81
2022-11-28T16:04:05.241Z,6.81
2022-11-28T16:06:39.380Z,6.79
2022-11-28T16:09:20.077Z,6.80
2022-11-28T16:11:53.096Z,6.80
2022-11-28T16:14:37.608Z,6.82
2022-11-28T16:17:20.619Z,6.84
2022-11-28T16:19:52.878Z,6.82
2022-11-28T16:22:27.495Z,6.82
2022-11-28T16:24:56.102Z,6.77
2022-11-28T16:27:38.177Z,6.84
2022-11-28T16:30:48.041Z,6.81
2022-11-28T16:33:43.663Z,6.84
2022-11-28T16:36:37.719Z,6.86
2022-11-28T16:39:15.741Z,6.88
2022-11-28T16:41:52.230Z,6.87
2022-11-28T16:44:23.813Z,6.81
2022-11-28T16:46:58.923Z,6.87
2022-11-28T16:50:14.069Z,6.87
2022-11-28T16:52:54.897Z,6.87
2022-11-28T16:55:41.980Z,6.89
2022-11-28T16:58:21.694Z,6.88
2022-11-28T17:01:02.364Z,6.82
2022-11-28T17:04:02.713Z,6.80
2022-11-28T17:06:37.613Z,6.81
2022-11-28T17:09:12.213Z,6.71
2022-11-28T17:11:46.405Z,6.75
2022-11-28T17:14:14.693Z,6.71
2022-11-28T17:16:43.353Z,6.74
2022-11-28T17:19:10.390Z,6.72
2022-11-28T17:21:43.654Z,6.67
2022-11-28T17:24:33.968Z,6.65
2022-11-28T17:27:02.174Z,6.69
2022-11-28T17:29:30.048Z,6.72
2022-11-28T17:31:59.001Z,6.72
2022-11-28T17:34:32.712Z,6.71
2022-11-28T17:37:03.058Z,6.71
2022-11-28T17:39:30.274Z,6.76
2022-11-28T17:41:59.189Z,6.74
2022-11-28T17:44:29.349Z,6.73
2022-11-28T17:46:58.636Z,6.77
2022-11-28T17:49:25.637Z,6.78
2022-11-28T17:51:55.257Z,6.75
2022-11-28T17:54:25.048Z,6.74
2022-11-28T17:56:54.059Z,6.75
2022-11-28T17:59:24.278Z,6.78
2022-11-28T18:01:51.679Z,6.81
2022-11-28T18:04:19.501Z,6.79
2022-11-28T18:06:47.821Z,6.75
2022-11-28T18:09:46.534Z,6.76
2022-11-28T18:12:27.192Z,6.75
2022-11-28T18:14:54.571Z,6.72
2022-11-28T18:17:21.765Z,6.73
2022-11-28T18:19:52.027Z,6.73
2022-11-28T18:22:22.012Z,6.71
2022-11-28T18:24:48.989Z,6.73
2022-11-28T18:27:16.293Z,6.74
2022-11-28T18:29:43.773Z,6.68
2022-11-28T18:32:11.439Z,6.72
2022-11-28T18:34:39.890Z,6.70
2022-11-28T18:37:07.345Z,6.70
2022-11-28T18:39:34.959Z,6.67
2022-11-28T18:42:02.246Z,6.70
2022-11-28T18:44:29.314Z,6.75
2022-11-28T18:46:56.443Z,6.70
2022-11-28T18:49:23.456Z,6.72
2022-11-28T18:51:51.380Z,6.68
2022-11-28T18:54:21.445Z,6.71
2022-11-28T18:56:49.498Z,6.70
2022-11-28T18:59:16.403Z,6.72
2022-11-28T19:01:43.612Z,6.71
2022-11-28T19:04:13.387Z,6.70
2022-11-28T19:06:42.917Z,6.71
2022-11-28T19:09:14.730Z,6.74
2022-11-28T19:11:44.365Z,6.75
2022-11-28T19:14:18.047Z,6.75
2022-11-28T19:16:47.104Z,6.75
2022-11-28T19:19:17.214Z,6.76
2022-11-28T19:21:44.984Z,6.75
2022-11-28T19:24:12.963Z,6.78
2022-11-28T19:26:40.669Z,6.78
2022-11-28T19:29:08.154Z,6.77
2022-11-28T19:31:37.505Z,6.78
2022-11-28T19:34:11.949Z,6.77
2022-11-28T19:36:49.219Z,6.78
2022-11-28T19:39:22.663Z,6.82
2022-11-28T19:41:52.730Z,6.84
2022-11-28T19:44:24.646Z,6.86
2022-11-28T19:46:52.891Z,6.85
2022-11-28T19:49:23.827Z,6.87
2022-11-28T19:51:54.404Z,6.86
2022-11-28T19:54:21.783Z,6.83
2022-11-28T19:56:59.771Z,6.83
2022-11-28T19:59:27.685Z,6.79
2022-11-28T20:01:54.949Z,6.77
2022-11-28T20:04:22.531Z,6.79
2022-11-28T20:06:49.696Z,6.82
2022-11-28T20:09:16.541Z,6.82
2022-11-28T20:11:45.087Z,6.83
2022-11-28T20:14:19.300Z,6.84
2022-11-28T20:16:47.307Z,6.79
2022-11-28T20:19:15.075Z,6.72
2022-11-28T20:21:42.490Z,6.74
2022-11-28T20:24:10.756Z,6.73
2022-11-28T20:26:41.703Z,6.72
2022-11-28T20:29:12.277Z,6.74
2022-11-28T20:31:45.348Z,6.68
2022-11-28T20:34:17.696Z,6.69
2022-11-28T20:36:45.337Z,6.69
2022-11-28T20:39:13.464Z,6.72
2022-11-28T20:41:40.712Z,6.75
2022-11-28T20:44:08.282Z,6.76
2022-11-28T20:46:35.819Z,6.76
2022-11-28T20:49:07.038Z,6.78
2022-11-28T20:51:35.883Z,6.75
2022-11-28T20:54:05.585Z,6.70
2022-11-28T20:57:04.959Z,6.72
2022-11-28T20:59:26.508Z,6.72
2022-11-28T21:01:53.975Z,6.75
2022-11-28T21:04:20.960Z,6.77
2022-11-28T21:06:49.432Z,6.80
2022-11-28T21:09:18.507Z,6.79
2022-11-28T21:12:02.842Z,6.78
2022-11-28T21:14:29.752Z,6.79
2022-11-28T21:16:58.589Z,6.82
2022-11-28T21:19:25.919Z,6.82
2022-11-28T21:21:53.229Z,6.81
2022-11-28T21:24:20.185Z,6.83
2022-11-28T21:26:53.560Z,6.79
2022-11-28T21:29:23.330Z,6.78
2022-11-28T21:31:51.081Z,6.79
2022-11-28T21:34:19.539Z,6.76
2022-11-28T21:36:47.073Z,6.77
2022-11-28T21:39:18.781Z,6.75
2022-11-28T21:41:46.411Z,6.74
2022-11-28T21:44:13.293Z,6.73
2022-11-28T21:46:40.580Z,6.69
2022-11-28T21:49:07.803Z,6.70
2022-11-28T21:51:35.143Z,6.69
2022-11-28T21:54:02.810Z,6.69
2022-11-28T21:56:30.383Z,6.70
2022-11-28T21:58:57.314Z,6.69
2022-11-28T22:01:24.548Z,6.69
2022-11-28T22:03:51.576Z,6.66
2022-11-28T22:06:24.440Z,6.63
2022-11-28T22:08:53.665Z,6.64
2022-11-28T22:11:22.246Z,6.65
2022-11-28T22:13:50.083Z,6.65
2022-11-28T22:16:19.891Z,6.63
2022-11-28T22:18:48.975Z,6.63
2022-11-28T22:24:04.677Z,6.64
2022-11-28T22:26:32.451Z,6.64
2022-11-28T22:28:59.503Z,6.63
2022-11-28T22:31:26.885Z,6.60
2022-11-28T22:33:53.734Z,6.59
2022-11-28T22:36:22.584Z,6.58
2022-11-28T22:38:55.838Z,6.57
2022-11-28T22:41:28.820Z,6.60
2022-11-28T22:44:00.301Z,6.63
2022-11-28T22:46:28.570Z,6.66
2022-11-28T22:48:56.162Z,6.70
2022-11-28T22:51:26.054Z,6.71
2022-11-28T22:53:58.973Z,6.72
2022-11-28T22:56:27.394Z,6.72
2022-11-28T22:58:54.859Z,6.68
2022-11-28T23:01:29.213Z,6.69
2022-11-28T23:30:46.533Z,6.56
2022-11-28T23:33:17.727Z,6.56
2022-11-28T23:35:45.602Z,6.50
2022-11-28T23:38:15.719Z,6.51
2022-11-28T23:40:42.838Z,6.51
2022-11-28T23:43:10.234Z,6.46
2022-11-28T23:45:37.701Z,6.39
2022-11-28T23:48:05.450Z,6.34
2022-11-28T23:50:34.587Z,6.29
2022-11-28T23:53:01.726Z,6.27
2022-11-28T23:55:28.555Z,6.32
2022-11-28T23:57:55.886Z,6.34
